Burgos, Burgos Airport (LEBG)

NameBurgos Airport
CityBurgos
CountrySpain
ICAOLEBG
IATARGS
Altitude903 m
CoordinatesGoogle Map
Live Air TrafficLiveATC.net
METARLEBG 131500Z 23010KT 200V260 9999 FEW031 BKN056 10/05 Q1011
2019-11-13 15:00:00 Wind: Southwest (230°) 5.14 m/s - Visibility: > 10000 m - Temperature: 10 °C - Dew point: 5 °C - Humidity: 71.3% - Pressure: 1011 hPa

Sorry, no flights used the airport in this database.